createdAt,value
2022-08-26T00:04:25.976Z,19.92
2022-08-26T00:09:24.820Z,19.85
2022-08-26T00:14:27.015Z,19.84
2022-08-26T00:19:26.135Z,19.75
2022-08-26T00:24:22.745Z,19.72
2022-08-26T00:29:21.357Z,19.73
2022-08-26T00:34:19.296Z,19.70
2022-08-26T00:39:16.041Z,19.65
2022-08-26T00:44:13.122Z,19.64
2022-08-26T00:49:15.973Z,19.68
2022-08-26T00:54:13.405Z,19.68
2022-08-26T00:59:12.111Z,19.71
2022-08-26T01:04:10.609Z,19.75
2022-08-26T01:09:07.973Z,19.76
2022-08-26T01:14:07.897Z,19.78
2022-08-26T01:19:43.507Z,19.71
2022-08-26T01:24:41.472Z,19.66
2022-08-26T01:29:42.890Z,19.71
2022-08-26T01:34:40.745Z,19.79
2022-08-26T01:39:37.805Z,19.74
2022-08-26T01:44:38.731Z,19.70
2022-08-26T01:49:36.922Z,19.73
2022-08-26T01:54:33.753Z,19.74
2022-08-26T01:59:30.669Z,19.79
2022-08-26T02:04:37.790Z,19.81
2022-08-26T02:09:41.295Z,19.76
2022-08-26T02:14:43.613Z,19.73
2022-08-26T02:19:45.550Z,19.61
2022-08-26T02:24:57.342Z,19.49
2022-08-26T02:29:58.880Z,19.50
2022-08-26T02:34:55.360Z,19.45
2022-08-26T02:39:52.293Z,19.45
2022-08-26T02:44:49.358Z,19.40
2022-08-26T02:49:47.258Z,19.28
2022-08-26T02:54:44.069Z,19.18
2022-08-26T02:59:41.921Z,19.09
2022-08-26T03:04:40.094Z,19.04
2022-08-26T03:09:36.503Z,19.01
2022-08-26T03:14:33.196Z,18.95
2022-08-26T03:19:31.199Z,18.93
2022-08-26T03:24:27.871Z,18.86
2022-08-26T03:29:43.539Z,18.77
2022-08-26T03:34:39.988Z,18.73
2022-08-26T03:39:36.903Z,18.70
2022-08-26T03:44:33.302Z,18.66
2022-08-26T03:49:31.803Z,18.68
2022-08-26T03:54:28.987Z,18.65
2022-08-26T03:59:26.648Z,18.53
2022-08-26T04:04:24.538Z,18.43
2022-08-26T04:09:21.074Z,18.28
2022-08-26T04:14:21.069Z,18.24
2022-08-26T04:19:19.241Z,18.14
2022-08-26T04:24:16.811Z,18.07
2022-08-26T04:29:20.664Z,17.88
2022-08-26T04:34:17.639Z,17.82
2022-08-26T04:39:18.725Z,17.88
2022-08-26T04:44:16.797Z,17.90
2022-08-26T04:49:13.822Z,17.87
2022-08-26T04:54:10.480Z,17.87
2022-08-26T04:59:16.739Z,17.87
2022-08-26T05:04:13.945Z,17.92
2022-08-26T05:09:15.287Z,18.04
2022-08-26T05:14:12.007Z,18.08
2022-08-26T05:19:08.732Z,18.11
2022-08-26T05:24:05.855Z,18.12
2022-08-26T05:29:02.734Z,18.27
2022-08-26T05:34:03.736Z,18.65
2022-08-26T05:39:01.906Z,18.97
2022-08-26T05:43:59.983Z,19.16
2022-08-26T05:48:57.138Z,19.23
2022-08-26T05:53:54.911Z,19.40
2022-08-26T05:58:52.114Z,19.77
2022-08-26T06:03:51.667Z,20.19
2022-08-26T06:08:48.617Z,20.71
2022-08-26T06:13:46.300Z,20.93
2022-08-26T06:18:44.040Z,20.89
2022-08-26T06:23:59.447Z,20.75
2022-08-26T06:28:57.696Z,21.01
2022-08-26T06:33:54.918Z,21.27
2022-08-26T06:38:52.754Z,21.51
2022-08-26T06:43:49.710Z,21.85
2022-08-26T06:48:46.413Z,22.23
2022-08-26T06:53:48.247Z,22.59
2022-08-26T06:58:45.253Z,22.98
2022-08-26T07:03:43.220Z,22.93
2022-08-26T07:08:42.903Z,22.02
2022-08-26T07:13:39.769Z,21.93
2022-08-26T07:18:37.010Z,21.94
2022-08-26T07:23:36.765Z,21.92
2022-08-26T07:28:33.188Z,21.81
2022-08-26T07:33:29.745Z,21.85
2022-08-26T07:38:27.286Z,22.25
2022-08-26T07:43:23.684Z,22.42
2022-08-26T07:48:21.529Z,22.14
2022-08-26T07:53:18.225Z,22.17
2022-08-26T07:58:16.912Z,22.25
2022-08-26T08:03:14.931Z,22.09
2022-08-26T08:08:26.522Z,22.30
2022-08-26T08:13:24.576Z,22.16
2022-08-26T08:18:23.062Z,22.13
2022-08-26T08:23:19.762Z,22.28
2022-08-26T08:28:17.767Z,22.31
2022-08-26T08:33:14.170Z,22.43
2022-08-26T08:38:11.669Z,23.30
2022-08-26T08:43:41.908Z,23.50
2022-08-26T08:48:56.786Z,23.58
2022-08-26T08:53:56.127Z,23.94
2022-08-26T08:59:11.127Z,23.74
2022-08-26T09:04:54.096Z,24.27
2022-08-26T09:09:59.891Z,24.77
2022-08-26T09:15:16.642Z,25.01
2022-08-26T09:20:23.958Z,25.30
2022-08-26T09:25:20.408Z,25.26
2022-08-26T09:30:31.637Z,25.81
2022-08-26T09:35:35.641Z,26.21
2022-08-26T09:40:35.301Z,25.17
2022-08-26T09:45:32.319Z,25.92
2022-08-26T09:50:33.352Z,26.40
2022-08-26T09:55:29.744Z,25.29
2022-08-26T10:00:39.913Z,25.10
2022-08-26T10:05:54.776Z,25.37
2022-08-26T10:10:53.296Z,25.83
2022-08-26T10:16:03.644Z,25.75
2022-08-26T10:21:43.394Z,26.36
2022-08-26T10:27:02.108Z,26.84
2022-08-26T10:32:03.536Z,27.02
2022-08-26T10:37:16.034Z,26.99
2022-08-26T10:42:27.481Z,27.12
2022-08-26T10:47:37.512Z,26.04
2022-08-26T10:52:43.416Z,25.89
2022-08-26T10:57:50.052Z,25.95
2022-08-26T11:02:50.340Z,25.87
2022-08-26T11:08:13.547Z,26.18
2022-08-26T11:13:10.524Z,26.01
2022-08-26T11:18:10.612Z,26.56
2022-08-26T11:23:13.071Z,26.17
2022-08-26T11:28:09.725Z,26.43
2022-08-26T11:33:07.121Z,26.67
2022-08-26T11:38:12.900Z,26.92
2022-08-26T11:43:19.443Z,26.52
2022-08-26T11:48:22.577Z,27.12
2022-08-26T11:53:22.595Z,27.22
2022-08-26T11:58:21.353Z,26.79
2022-08-26T12:03:23.845Z,26.86
2022-08-26T12:08:24.823Z,26.28
2022-08-26T12:13:26.614Z,26.08
2022-08-26T12:18:34.716Z,25.41
2022-08-26T12:23:45.883Z,25.61
2022-08-26T12:28:45.848Z,25.86
2022-08-26T12:33:42.517Z,26.03
2022-08-26T12:38:40.396Z,25.61
2022-08-26T12:43:45.346Z,25.42
2022-08-26T12:48:44.179Z,25.83
2022-08-26T12:53:44.088Z,26.14
2022-08-26T12:58:40.767Z,26.07
2022-08-26T13:03:46.232Z,26.10
2022-08-26T13:09:07.691Z,26.38
2022-08-26T13:14:18.446Z,25.85
2022-08-26T13:19:23.478Z,26.02
2022-08-26T13:24:23.094Z,26.28
2022-08-26T13:29:19.667Z,26.21
2022-08-26T13:34:19.849Z,26.07
2022-08-26T13:39:17.422Z,26.63
2022-08-26T13:44:14.045Z,26.25
2022-08-26T13:49:10.913Z,25.94
2022-08-26T13:54:07.491Z,25.83
2022-08-26T13:59:05.562Z,26.05
2022-08-26T14:04:03.478Z,26.79
2022-08-26T14:09:00.403Z,27.30
2022-08-26T14:13:56.923Z,27.54
2022-08-26T14:18:54.019Z,26.64
2022-08-26T14:23:50.447Z,26.49
2022-08-26T14:28:46.923Z,26.24
2022-08-26T14:33:43.680Z,26.16
2022-08-26T14:38:40.221Z,26.01
2022-08-26T14:43:47.071Z,26.19
2022-08-26T14:48:43.730Z,26.53
2022-08-26T14:53:58.948Z,26.24
2022-08-26T14:58:55.393Z,26.40
2022-08-26T15:03:52.929Z,26.44
2022-08-26T15:08:49.522Z,26.06
2022-08-26T15:13:46.174Z,26.02
2022-08-26T15:18:42.671Z,25.83
2022-08-26T15:23:39.527Z,25.62
2022-08-26T15:28:37.440Z,25.81
2022-08-26T15:33:36.336Z,25.44
2022-08-26T15:38:35.781Z,25.18
2022-08-26T15:43:33.281Z,25.38
2022-08-26T15:48:29.753Z,25.32
2022-08-26T15:53:28.019Z,25.14
2022-08-26T15:58:27.027Z,24.83
2022-08-26T16:03:23.809Z,24.62
2022-08-26T16:08:20.845Z,24.57
2022-08-26T16:13:18.424Z,24.38
2022-08-26T16:18:15.831Z,24.30
2022-08-26T16:23:12.226Z,24.29
2022-08-26T16:28:11.630Z,24.10
2022-08-26T16:33:09.066Z,23.97
2022-08-26T16:38:06.850Z,23.66
2022-08-26T16:43:04.354Z,23.40
2022-08-26T16:48:00.777Z,23.22
2022-08-26T16:52:57.301Z,23.30
2022-08-26T16:57:54.084Z,23.55
2022-08-26T17:02:50.570Z,24.69
2022-08-26T17:07:47.099Z,25.08
2022-08-26T17:12:43.559Z,25.34
2022-08-26T17:17:40.773Z,27.97
2022-08-26T17:22:40.236Z,26.74
2022-08-26T17:27:36.681Z,24.94
2022-08-26T17:32:33.281Z,24.52
2022-08-26T17:37:29.818Z,24.22
2022-08-26T17:42:31.388Z,23.34
2022-08-26T17:47:28.366Z,23.03
2022-08-26T17:52:24.763Z,22.82
2022-08-26T17:57:21.166Z,22.67
2022-08-26T18:02:17.655Z,22.34
2022-08-26T18:07:15.743Z,22.23
2022-08-26T18:12:12.553Z,22.04
2022-08-26T18:17:09.011Z,21.94
2022-08-26T18:22:06.805Z,21.82
2022-08-26T18:27:03.404Z,21.76
2022-08-26T18:31:59.817Z,21.64
2022-08-26T18:36:56.289Z,21.62
2022-08-26T18:41:53.259Z,21.62
2022-08-26T18:46:51.171Z,21.63
2022-08-26T18:51:50.996Z,21.61
2022-08-26T18:56:47.498Z,21.59
2022-08-26T19:01:45.271Z,21.53
2022-08-26T19:06:41.922Z,21.48
2022-08-26T19:11:42.298Z,21.46
2022-08-26T19:16:42.287Z,21.42
2022-08-26T19:21:39.059Z,21.40
2022-08-26T19:26:36.506Z,21.38
2022-08-26T19:31:33.452Z,21.34
2022-08-26T19:36:29.999Z,21.24
2022-08-26T19:41:36.695Z,21.12
2022-08-26T19:46:33.726Z,21.01
2022-08-26T19:51:31.813Z,20.84
2022-08-26T19:56:29.020Z,20.65
2022-08-26T20:01:26.208Z,20.47
2022-08-26T20:06:22.721Z,20.37
2022-08-26T20:11:19.273Z,20.37
2022-08-26T20:16:16.677Z,20.22
2022-08-26T20:21:29.170Z,20.16
2022-08-26T20:26:29.882Z,20.04
2022-08-26T20:31:27.297Z,20.00
2022-08-26T20:36:26.898Z,19.96
2022-08-26T20:41:25.791Z,19.90
2022-08-26T20:46:24.899Z,19.86
2022-08-26T20:51:23.507Z,19.80
2022-08-26T20:56:23.779Z,19.76
2022-08-26T21:01:24.007Z,19.74
2022-08-26T21:06:20.780Z,19.69
2022-08-26T21:11:18.245Z,19.63
2022-08-26T21:16:14.685Z,19.55
2022-08-26T21:21:11.133Z,19.51
2022-08-26T21:26:10.776Z,19.46
2022-08-26T21:31:09.404Z,19.41
2022-08-26T21:36:07.632Z,19.35
2022-08-26T21:41:09.448Z,19.28
2022-08-26T21:46:14.872Z,19.22
2022-08-26T21:51:13.233Z,19.20
2022-08-26T21:56:12.597Z,19.15
2022-08-26T22:01:15.121Z,19.15
2022-08-26T22:06:11.671Z,19.22
2022-08-26T22:11:09.496Z,19.26
2022-08-26T22:16:07.037Z,19.28
2022-08-26T22:21:05.100Z,19.14
2022-08-26T22:26:02.179Z,19.17
2022-08-26T22:30:58.997Z,19.22
2022-08-26T22:35:55.707Z,19.24
2022-08-26T22:40:57.670Z,19.12
2022-08-26T22:45:55.616Z,19.12
2022-08-26T22:50:58.228Z,19.04
2022-08-26T22:55:56.581Z,19.05
2022-08-26T23:00:53.037Z,19.02
2022-08-26T23:05:52.463Z,18.97
2022-08-26T23:10:51.138Z,18.95
2022-08-26T23:15:47.571Z,18.90
2022-08-26T23:20:44.001Z,18.91
2022-08-26T23:25:40.378Z,18.86
2022-08-26T23:30:37.760Z,18.89
2022-08-26T23:35:34.135Z,18.84
2022-08-26T23:40:33.217Z,18.69
2022-08-26T23:45:30.405Z,18.65
2022-08-26T23:50:48.775Z,18.59
2022-08-26T23:55:48.234Z,18.56
